sensor_id;sensor_type;location;lat;lon;timestamp;P1;durP1;ratioP1;P2;durP2;ratioP2
17153;SDS011;8692;52.164;7.558;2023-08-31T00:02:18;6.23;;;3.03;;
17153;SDS011;8692;52.164;7.558;2023-08-31T00:04:46;3.73;;;3.03;;
17153;SDS011;8692;52.164;7.558;2023-08-31T00:07:14;3.67;;;2.10;;
17153;SDS011;8692;52.164;7.558;2023-08-31T00:09:42;6.70;;;3.27;;
17153;SDS011;8692;52.164;7.558;2023-08-31T00:12:11;3.97;;;2.97;;
17153;SDS011;8692;52.164;7.558;2023-08-31T00:14:39;3.50;;;2.67;;
17153;SDS011;8692;52.164;7.558;2023-08-31T00:17:08;3.17;;;2.40;;
17153;SDS011;8692;52.164;7.558;2023-08-31T00:19:36;3.13;;;2.40;;
17153;SDS011;8692;52.164;7.558;2023-08-31T00:22:04;4.70;;;3.37;;
17153;SDS011;8692;52.164;7.558;2023-08-31T00:24:32;3.00;;;2.80;;
17153;SDS011;8692;52.164;7.558;2023-08-31T00:27:03;5.03;;;2.87;;
17153;SDS011;8692;52.164;7.558;2023-08-31T00:29:33;5.60;;;3.17;;
17153;SDS011;8692;52.164;7.558;2023-08-31T00:32:01;4.70;;;3.67;;
17153;SDS011;8692;52.164;7.558;2023-08-31T00:34:32;6.63;;;3.47;;
17153;SDS011;8692;52.164;7.558;2023-08-31T00:37:00;5.17;;;3.60;;
17153;SDS011;8692;52.164;7.558;2023-08-31T00:39:30;3.10;;;2.80;;
17153;SDS011;8692;52.164;7.558;2023-08-31T00:42:00;7.90;;;4.00;;
17153;SDS011;8692;52.164;7.558;2023-08-31T00:44:31;4.97;;;3.27;;
17153;SDS011;8692;52.164;7.558;2023-08-31T00:46:59;4.50;;;3.87;;
17153;SDS011;8692;52.164;7.558;2023-08-31T00:49:28;6.67;;;4.07;;
17153;SDS011;8692;52.164;7.558;2023-08-31T00:51:57;5.50;;;3.97;;
17153;SDS011;8692;52.164;7.558;2023-08-31T00:54:28;5.00;;;3.47;;
17153;SDS011;8692;52.164;7.558;2023-08-31T00:56:56;3.63;;;3.33;;
17153;SDS011;8692;52.164;7.558;2023-08-31T00:59:24;6.43;;;3.77;;
17153;SDS011;8692;52.164;7.558;2023-08-31T01:01:55;3.90;;;3.40;;
17153;SDS011;8692;52.164;7.558;2023-08-31T01:04:31;4.73;;;3.90;;
17153;SDS011;8692;52.164;7.558;2023-08-31T01:07:09;5.07;;;3.40;;
17153;SDS011;8692;52.164;7.558;2023-08-31T01:09:47;7.00;;;4.10;;
17153;SDS011;8692;52.164;7.558;2023-08-31T01:12:21;5.27;;;3.53;;
17153;SDS011;8692;52.164;7.558;2023-08-31T01:14:58;3.93;;;3.50;;
17153;SDS011;8692;52.164;7.558;2023-08-31T01:17:35;4.77;;;3.67;;
17153;SDS011;8692;52.164;7.558;2023-08-31T01:20:08;8.33;;;3.97;;
17153;SDS011;8692;52.164;7.558;2023-08-31T01:22:52;5.73;;;3.80;;
17153;SDS011;8692;52.164;7.558;2023-08-31T01:25:26;6.17;;;3.70;;
17153;SDS011;8692;52.164;7.558;2023-08-31T01:27:57;10.77;;;4.77;;
17153;SDS011;8692;52.164;7.558;2023-08-31T01:30:29;7.80;;;3.90;;
17153;SDS011;8692;52.164;7.558;2023-08-31T01:32:57;4.73;;;4.00;;
17153;SDS011;8692;52.164;7.558;2023-08-31T01:35:25;6.03;;;4.20;;
17153;SDS011;8692;52.164;7.558;2023-08-31T01:37:55;4.47;;;4.03;;
17153;SDS011;8692;52.164;7.558;2023-08-31T01:40:27;6.03;;;3.87;;
17153;SDS011;8692;52.164;7.558;2023-08-31T01:43:01;8.23;;;3.90;;
17153;SDS011;8692;52.164;7.558;2023-08-31T01:45:32;4.67;;;3.57;;
17153;SDS011;8692;52.164;7.558;2023-08-31T01:48:01;4.80;;;3.77;;
17153;SDS011;8692;52.164;7.558;2023-08-31T01:50:29;4.43;;;3.33;;
17153;SDS011;8692;52.164;7.558;2023-08-31T01:52:57;4.80;;;3.07;;
17153;SDS011;8692;52.164;7.558;2023-08-31T01:55:27;3.67;;;2.83;;
17153;SDS011;8692;52.164;7.558;2023-08-31T01:57:55;4.60;;;3.77;;
17153;SDS011;8692;52.164;7.558;2023-08-31T02:00:25;3.90;;;3.10;;
17153;SDS011;8692;52.164;7.558;2023-08-31T02:02:55;4.13;;;3.63;;
17153;SDS011;8692;52.164;7.558;2023-08-31T02:05:23;3.10;;;2.80;;
17153;SDS011;8692;52.164;7.558;2023-08-31T02:07:52;4.27;;;3.10;;
17153;SDS011;8692;52.164;7.558;2023-08-31T02:10:22;4.10;;;3.20;;
17153;SDS011;8692;52.164;7.558;2023-08-31T02:12:51;5.40;;;3.37;;
17153;SDS011;8692;52.164;7.558;2023-08-31T02:15:19;4.53;;;3.43;;
17153;SDS011;8692;52.164;7.558;2023-08-31T02:17:47;7.50;;;3.40;;
17153;SDS011;8692;52.164;7.558;2023-08-31T02:20:15;4.17;;;3.13;;
17153;SDS011;8692;52.164;7.558;2023-08-31T02:22:43;2.93;;;2.60;;
17153;SDS011;8692;52.164;7.558;2023-08-31T02:25:11;3.87;;;3.47;;
17153;SDS011;8692;52.164;7.558;2023-08-31T02:27:40;3.73;;;3.20;;
17153;SDS011;8692;52.164;7.558;2023-08-31T02:30:09;4.83;;;3.07;;
17153;SDS011;8692;52.164;7.558;2023-08-31T02:32:37;4.33;;;3.20;;
17153;SDS011;8692;52.164;7.558;2023-08-31T02:35:06;4.93;;;3.07;;
17153;SDS011;8692;52.164;7.558;2023-08-31T02:37:34;3.67;;;3.17;;
17153;SDS011;8692;52.164;7.558;2023-08-31T02:40:02;4.30;;;3.10;;
17153;SDS011;8692;52.164;7.558;2023-08-31T02:42:30;3.77;;;3.13;;
17153;SDS011;8692;52.164;7.558;2023-08-31T02:44:58;4.17;;;3.40;;
17153;SDS011;8692;52.164;7.558;2023-08-31T02:47:29;6.13;;;3.87;;
17153;SDS011;8692;52.164;7.558;2023-08-31T02:49:57;3.47;;;2.80;;
17153;SDS011;8692;52.164;7.558;2023-08-31T02:52:26;3.57;;;3.27;;
17153;SDS011;8692;52.164;7.558;2023-08-31T02:54:54;4.37;;;3.23;;
17153;SDS011;8692;52.164;7.558;2023-08-31T02:57:21;3.20;;;2.97;;
17153;SDS011;8692;52.164;7.558;2023-08-31T02:59:50;5.10;;;3.20;;
17153;SDS011;8692;52.164;7.558;2023-08-31T03:02:18;3.27;;;2.70;;
17153;SDS011;8692;52.164;7.558;2023-08-31T03:04:48;3.47;;;3.17;;
17153;SDS011;8692;52.164;7.558;2023-08-31T03:07:16;3.27;;;2.63;;
17153;SDS011;8692;52.164;7.558;2023-08-31T03:09:48;3.97;;;3.00;;
17153;SDS011;8692;52.164;7.558;2023-08-31T03:12:16;3.93;;;3.40;;
17153;SDS011;8692;52.164;7.558;2023-08-31T03:14:44;5.27;;;4.03;;
17153;SDS011;8692;52.164;7.558;2023-08-31T03:17:12;5.03;;;3.57;;
17153;SDS011;8692;52.164;7.558;2023-08-31T03:19:40;3.80;;;3.47;;
17153;SDS011;8692;52.164;7.558;2023-08-31T03:22:11;3.27;;;2.80;;
17153;SDS011;8692;52.164;7.558;2023-08-31T03:24:40;4.13;;;3.50;;
17153;SDS011;8692;52.164;7.558;2023-08-31T03:27:08;4.10;;;3.53;;
17153;SDS011;8692;52.164;7.558;2023-08-31T03:29:38;4.27;;;3.10;;
17153;SDS011;8692;52.164;7.558;2023-08-31T03:32:06;3.47;;;3.17;;
17153;SDS011;8692;52.164;7.558;2023-08-31T03:34:33;5.93;;;4.03;;
17153;SDS011;8692;52.164;7.558;2023-08-31T03:37:01;3.67;;;3.37;;
17153;SDS011;8692;52.164;7.558;2023-08-31T03:39:32;3.80;;;3.50;;
17153;SDS011;8692;52.164;7.558;2023-08-31T03:42:00;4.03;;;3.67;;
17153;SDS011;8692;52.164;7.558;2023-08-31T03:44:28;4.53;;;3.57;;
17153;SDS011;8692;52.164;7.558;2023-08-31T03:46:56;6.40;;;3.93;;
17153;SDS011;8692;52.164;7.558;2023-08-31T03:49:24;4.93;;;4.50;;
17153;SDS011;8692;52.164;7.558;2023-08-31T03:51:52;6.13;;;4.67;;
17153;SDS011;8692;52.164;7.558;2023-08-31T03:54:20;7.67;;;4.53;;
17153;SDS011;8692;52.164;7.558;2023-08-31T03:56:50;5.60;;;4.70;;
17153;SDS011;8692;52.164;7.558;2023-08-31T03:59:18;5.37;;;4.53;;
17153;SDS011;8692;52.164;7.558;2023-08-31T04:01:46;7.47;;;5.50;;
17153;SDS011;8692;52.164;7.558;2023-08-31T04:04:14;7.80;;;5.70;;
17153;SDS011;8692;52.164;7.558;2023-08-31T04:06:42;5.47;;;4.90;;
17153;SDS011;8692;52.164;7.558;2023-08-31T04:09:10;6.13;;;5.53;;
17153;SDS011;8692;52.164;7.558;2023-08-31T04:11:38;7.70;;;5.90;;
17153;SDS011;8692;52.164;7.558;2023-08-31T04:14:07;5.77;;;5.17;;
17153;SDS011;8692;52.164;7.558;2023-08-31T04:16:35;6.40;;;5.80;;
17153;SDS011;8692;52.164;7.558;2023-08-31T04:19:03;8.40;;;5.27;;
17153;SDS011;8692;52.164;7.558;2023-08-31T04:21:31;7.90;;;6.67;;
17153;SDS011;8692;52.164;7.558;2023-08-31T04:23:59;8.23;;;5.50;;
17153;SDS011;8692;52.164;7.558;2023-08-31T04:26:27;8.03;;;6.87;;
17153;SDS011;8692;52.164;7.558;2023-08-31T04:28:55;6.93;;;6.20;;
17153;SDS011;8692;52.164;7.558;2023-08-31T04:31:25;7.53;;;6.83;;
17153;SDS011;8692;52.164;7.558;2023-08-31T04:33:53;7.67;;;6.93;;
17153;SDS011;8692;52.164;7.558;2023-08-31T04:36:21;8.80;;;6.60;;
17153;SDS011;8692;52.164;7.558;2023-08-31T04:38:49;7.37;;;6.77;;
17153;SDS011;8692;52.164;7.558;2023-08-31T04:41:17;8.23;;;7.10;;
17153;SDS011;8692;52.164;7.558;2023-08-31T04:43:45;7.50;;;6.90;;
17153;SDS011;8692;52.164;7.558;2023-08-31T04:46:14;9.10;;;7.53;;
17153;SDS011;8692;52.164;7.558;2023-08-31T04:48:44;12.47;;;8.13;;
17153;SDS011;8692;52.164;7.558;2023-08-31T04:51:26;9.77;;;8.23;;
17153;SDS011;8692;52.164;7.558;2023-08-31T04:53:55;9.90;;;7.67;;
17153;SDS011;8692;52.164;7.558;2023-08-31T04:56:23;9.40;;;8.50;;
17153;SDS011;8692;52.164;7.558;2023-08-31T04:58:51;10.07;;;8.67;;
17153;SDS011;8692;52.164;7.558;2023-08-31T05:01:19;10.17;;;8.93;;
17153;SDS011;8692;52.164;7.558;2023-08-31T05:03:49;10.57;;;9.33;;
17153;SDS011;8692;52.164;7.558;2023-08-31T05:06:17;11.37;;;9.70;;
17153;SDS011;8692;52.164;7.558;2023-08-31T05:08:46;12.13;;;10.27;;
17153;SDS011;8692;52.164;7.558;2023-08-31T05:11:14;10.30;;;9.27;;
17153;SDS011;8692;52.164;7.558;2023-08-31T05:13:42;13.00;;;11.63;;
17153;SDS011;8692;52.164;7.558;2023-08-31T05:16:10;10.70;;;9.70;;
17153;SDS011;8692;52.164;7.558;2023-08-31T05:18:38;10.87;;;9.87;;
17153;SDS011;8692;52.164;7.558;2023-08-31T05:21:08;11.10;;;9.97;;
17153;SDS011;8692;52.164;7.558;2023-08-31T05:23:36;10.83;;;9.67;;
17153;SDS011;8692;52.164;7.558;2023-08-31T05:26:04;13.60;;;10.50;;
17153;SDS011;8692;52.164;7.558;2023-08-31T05:28:32;13.90;;;12.60;;
17153;SDS011;8692;52.164;7.558;2023-08-31T05:31:00;12.43;;;11.23;;
17153;SDS011;8692;52.164;7.558;2023-08-31T05:33:29;14.07;;;11.20;;
17153;SDS011;8692;52.164;7.558;2023-08-31T05:36:00;11.03;;;10.13;;
17153;SDS011;8692;52.164;7.558;2023-08-31T05:38:31;12.87;;;11.57;;
17153;SDS011;8692;52.164;7.558;2023-08-31T05:41:05;11.87;;;10.53;;
17153;SDS011;8692;52.164;7.558;2023-08-31T05:43:34;11.83;;;10.73;;
17153;SDS011;8692;52.164;7.558;2023-08-31T05:46:03;11.80;;;10.60;;
17153;SDS011;8692;52.164;7.558;2023-08-31T05:48:31;12.33;;;11.23;;
17153;SDS011;8692;52.164;7.558;2023-08-31T05:50:59;11.80;;;10.80;;
17153;SDS011;8692;52.164;7.558;2023-08-31T05:53:27;12.40;;;10.13;;
17153;SDS011;8692;52.164;7.558;2023-08-31T05:55:56;12.00;;;10.87;;
17153;SDS011;8692;52.164;7.558;2023-08-31T05:58:30;11.30;;;10.30;;
17153;SDS011;8692;52.164;7.558;2023-08-31T06:00:59;12.07;;;10.97;;
17153;SDS011;8692;52.164;7.558;2023-08-31T06:03:27;11.47;;;10.37;;
17153;SDS011;8692;52.164;7.558;2023-08-31T06:05:55;11.80;;;10.57;;
17153;SDS011;8692;52.164;7.558;2023-08-31T06:08:24;10.70;;;9.80;;
17153;SDS011;8692;52.164;7.558;2023-08-31T06:10:52;14.70;;;11.07;;
17153;SDS011;8692;52.164;7.558;2023-08-31T06:13:22;16.20;;;11.40;;
17153;SDS011;8692;52.164;7.558;2023-08-31T06:15:50;11.83;;;10.80;;
17153;SDS011;8692;52.164;7.558;2023-08-31T06:18:18;13.97;;;10.93;;
17153;SDS011;8692;52.164;7.558;2023-08-31T06:20:46;11.97;;;10.77;;
17153;SDS011;8692;52.164;7.558;2023-08-31T06:23:16;12.43;;;11.33;;
17153;SDS011;8692;52.164;7.558;2023-08-31T06:25:44;13.40;;;11.97;;
17153;SDS011;8692;52.164;7.558;2023-08-31T06:28:13;11.57;;;10.43;;
17153;SDS011;8692;52.164;7.558;2023-08-31T06:30:42;12.20;;;11.00;;
17153;SDS011;8692;52.164;7.558;2023-08-31T06:33:12;15.67;;;12.90;;
17153;SDS011;8692;52.164;7.558;2023-08-31T06:35:41;12.10;;;11.07;;
17153;SDS011;8692;52.164;7.558;2023-08-31T06:38:09;12.07;;;10.97;;
17153;SDS011;8692;52.164;7.558;2023-08-31T06:40:37;12.90;;;11.67;;
17153;SDS011;8692;52.164;7.558;2023-08-31T06:43:05;12.80;;;11.60;;
17153;SDS011;8692;52.164;7.558;2023-08-31T06:45:33;11.97;;;10.90;;
17153;SDS011;8692;52.164;7.558;2023-08-31T06:48:03;11.37;;;10.40;;
17153;SDS011;8692;52.164;7.558;2023-08-31T06:50:32;11.37;;;10.37;;
17153;SDS011;8692;52.164;7.558;2023-08-31T06:53:01;12.17;;;10.90;;
17153;SDS011;8692;52.164;7.558;2023-08-31T06:55:30;12.60;;;11.40;;
17153;SDS011;8692;52.164;7.558;2023-08-31T06:58:00;13.13;;;12.03;;
17153;SDS011;8692;52.164;7.558;2023-08-31T07:00:30;11.77;;;10.77;;
17153;SDS011;8692;52.164;7.558;2023-08-31T07:02:59;11.83;;;10.73;;
17153;SDS011;8692;52.164;7.558;2023-08-31T07:05:32;12.83;;;11.53;;
17153;SDS011;8692;52.164;7.558;2023-08-31T07:08:01;12.80;;;11.67;;
17153;SDS011;8692;52.164;7.558;2023-08-31T07:10:29;12.93;;;11.63;;
17153;SDS011;8692;52.164;7.558;2023-08-31T07:12:57;13.50;;;12.40;;
17153;SDS011;8692;52.164;7.558;2023-08-31T07:15:25;14.53;;;11.50;;
17153;SDS011;8692;52.164;7.558;2023-08-31T07:17:56;13.07;;;11.97;;
17153;SDS011;8692;52.164;7.558;2023-08-31T07:20:24;13.63;;;12.40;;
17153;SDS011;8692;52.164;7.558;2023-08-31T07:22:53;13.83;;;12.57;;
17153;SDS011;8692;52.164;7.558;2023-08-31T07:25:21;14.37;;;13.07;;
17153;SDS011;8692;52.164;7.558;2023-08-31T07:27:49;14.40;;;13.00;;
17153;SDS011;8692;52.164;7.558;2023-08-31T07:30:18;12.87;;;11.77;;
17153;SDS011;8692;52.164;7.558;2023-08-31T07:32:46;14.53;;;13.10;;
17153;SDS011;8692;52.164;7.558;2023-08-31T07:35:14;13.63;;;12.33;;
17153;SDS011;8692;52.164;7.558;2023-08-31T07:37:42;14.47;;;12.77;;
17153;SDS011;8692;52.164;7.558;2023-08-31T07:40:12;14.67;;;13.37;;
17153;SDS011;8692;52.164;7.558;2023-08-31T07:42:40;13.23;;;12.00;;
17153;SDS011;8692;52.164;7.558;2023-08-31T07:45:08;14.37;;;12.93;;
17153;SDS011;8692;52.164;7.558;2023-08-31T07:47:37;13.10;;;11.80;;
17153;SDS011;8692;52.164;7.558;2023-08-31T07:50:06;11.73;;;10.53;;
17153;SDS011;8692;52.164;7.558;2023-08-31T07:52:34;13.40;;;11.67;;
17153;SDS011;8692;52.164;7.558;2023-08-31T07:55:04;12.27;;;11.13;;
17153;SDS011;8692;52.164;7.558;2023-08-31T07:57:34;12.03;;;10.77;;
17153;SDS011;8692;52.164;7.558;2023-08-31T08:00:02;11.40;;;10.27;;
17153;SDS011;8692;52.164;7.558;2023-08-31T08:02:37;11.17;;;10.27;;
17153;SDS011;8692;52.164;7.558;2023-08-31T08:05:06;10.87;;;9.87;;
17153;SDS011;8692;52.164;7.558;2023-08-31T08:07:35;10.90;;;9.77;;
17153;SDS011;8692;52.164;7.558;2023-08-31T08:10:03;11.20;;;10.10;;
17153;SDS011;8692;52.164;7.558;2023-08-31T08:12:37;10.67;;;9.77;;
17153;SDS011;8692;52.164;7.558;2023-08-31T08:15:06;11.97;;;10.37;;
17153;SDS011;8692;52.164;7.558;2023-08-31T08:17:34;9.60;;;8.00;;
17153;SDS011;8692;52.164;7.558;2023-08-31T08:20:02;9.67;;;8.50;;
17153;SDS011;8692;52.164;7.558;2023-08-31T08:22:33;8.90;;;7.93;;
17153;SDS011;8692;52.164;7.558;2023-08-31T08:25:02;9.43;;;8.57;;
17153;SDS011;8692;52.164;7.558;2023-08-31T08:27:30;9.40;;;7.83;;
17153;SDS011;8692;52.164;7.558;2023-08-31T08:30:00;9.37;;;7.40;;
17153;SDS011;8692;52.164;7.558;2023-08-31T08:32:28;7.47;;;6.70;;
17153;SDS011;8692;52.164;7.558;2023-08-31T08:34:56;7.60;;;6.90;;
17153;SDS011;8692;52.164;7.558;2023-08-31T08:37:24;7.30;;;6.70;;
17153;SDS011;8692;52.164;7.558;2023-08-31T08:39:52;7.73;;;6.93;;
17153;SDS011;8692;52.164;7.558;2023-08-31T08:42:21;7.47;;;6.77;;
17153;SDS011;8692;52.164;7.558;2023-08-31T08:44:51;7.10;;;6.50;;
17153;SDS011;8692;52.164;7.558;2023-08-31T08:47:21;7.60;;;6.67;;
17153;SDS011;8692;52.164;7.558;2023-08-31T08:49:49;6.93;;;6.33;;
17153;SDS011;8692;52.164;7.558;2023-08-31T08:52:17;7.83;;;6.10;;
17153;SDS011;8692;52.164;7.558;2023-08-31T08:54:45;5.90;;;5.30;;
17153;SDS011;8692;52.164;7.558;2023-08-31T08:57:14;6.07;;;5.37;;
17153;SDS011;8692;52.164;7.558;2023-08-31T08:59:42;8.00;;;4.77;;
17153;SDS011;8692;52.164;7.558;2023-08-31T09:02:10;13.60;;;4.70;;
17153;SDS011;8692;52.164;7.558;2023-08-31T09:04:40;6.47;;;4.57;;
17153;SDS011;8692;52.164;7.558;2023-08-31T09:07:08;10.33;;;5.37;;
17153;SDS011;8692;52.164;7.558;2023-08-31T09:09:47;6.13;;;5.10;;
17153;SDS011;8692;52.164;7.558;2023-08-31T09:12:17;4.90;;;4.50;;
17153;SDS011;8692;52.164;7.558;2023-08-31T09:14:56;5.07;;;3.70;;
17153;SDS011;8692;52.164;7.558;2023-08-31T09:17:24;4.27;;;3.50;;
17153;SDS011;8692;52.164;7.558;2023-08-31T09:20:00;3.60;;;3.20;;
17153;SDS011;8692;52.164;7.558;2023-08-31T09:22:29;4.67;;;3.10;;
17153;SDS011;8692;52.164;7.558;2023-08-31T09:24:58;3.27;;;2.97;;
17153;SDS011;8692;52.164;7.558;2023-08-31T09:27:26;3.20;;;2.47;;
17153;SDS011;8692;52.164;7.558;2023-08-31T09:29:54;4.97;;;2.50;;
17153;SDS011;8692;52.164;7.558;2023-08-31T09:32:22;4.20;;;3.17;;
17153;SDS011;8692;52.164;7.558;2023-08-31T09:34:50;3.43;;;2.80;;
17153;SDS011;8692;52.164;7.558;2023-08-31T09:37:33;4.77;;;3.00;;
17153;SDS011;8692;52.164;7.558;2023-08-31T09:40:02;4.13;;;2.37;;
17153;SDS011;8692;52.164;7.558;2023-08-31T09:42:35;5.17;;;2.90;;
17153;SDS011;8692;52.164;7.558;2023-08-31T09:45:05;4.70;;;2.33;;
17153;SDS011;8692;52.164;7.558;2023-08-31T09:47:33;2.60;;;2.33;;
17153;SDS011;8692;52.164;7.558;2023-08-31T09:50:03;3.03;;;2.23;;
17153;SDS011;8692;52.164;7.558;2023-08-31T09:52:33;3.47;;;1.80;;
17153;SDS011;8692;52.164;7.558;2023-08-31T09:55:03;4.70;;;2.80;;
17153;SDS011;8692;52.164;7.558;2023-08-31T09:57:32;4.37;;;2.53;;
17153;SDS011;8692;52.164;7.558;2023-08-31T10:00:12;3.37;;;2.60;;
17153;SDS011;8692;52.164;7.558;2023-08-31T10:02:42;4.10;;;2.57;;
17153;SDS011;8692;52.164;7.558;2023-08-31T10:05:11;3.37;;;2.50;;
17153;SDS011;8692;52.164;7.558;2023-08-31T10:07:40;4.10;;;2.40;;
17153;SDS011;8692;52.164;7.558;2023-08-31T10:10:10;2.23;;;2.03;;
17153;SDS011;8692;52.164;7.558;2023-08-31T10:12:39;4.07;;;2.43;;
17153;SDS011;8692;52.164;7.558;2023-08-31T10:15:09;2.53;;;2.00;;
17153;SDS011;8692;52.164;7.558;2023-08-31T10:17:39;3.67;;;1.70;;
17153;SDS011;8692;52.164;7.558;2023-08-31T10:20:08;2.47;;;1.70;;
17153;SDS011;8692;52.164;7.558;2023-08-31T10:22:37;3.10;;;1.80;;
17153;SDS011;8692;52.164;7.558;2023-08-31T10:25:07;2.27;;;1.70;;
17153;SDS011;8692;52.164;7.558;2023-08-31T10:27:36;3.93;;;2.33;;
17153;SDS011;8692;52.164;7.558;2023-08-31T10:30:15;3.63;;;1.90;;
17153;SDS011;8692;52.164;7.558;2023-08-31T10:35:49;2.63;;;1.90;;
17153;SDS011;8692;52.164;7.558;2023-08-31T10:38:25;4.93;;;2.37;;
17153;SDS011;8692;52.164;7.558;2023-08-31T10:41:03;3.97;;;2.50;;
17153;SDS011;8692;52.164;7.558;2023-08-31T10:43:49;3.57;;;2.27;;
17153;SDS011;8692;52.164;7.558;2023-08-31T10:46:19;7.43;;;2.70;;
17153;SDS011;8692;52.164;7.558;2023-08-31T10:48:54;4.20;;;2.07;;
17153;SDS011;8692;52.164;7.558;2023-08-31T10:51:26;4.37;;;1.80;;
17153;SDS011;8692;52.164;7.558;2023-08-31T10:54:06;6.00;;;2.40;;
17153;SDS011;8692;52.164;7.558;2023-08-31T10:56:53;2.73;;;1.73;;
17153;SDS011;8692;52.164;7.558;2023-08-31T10:59:41;3.07;;;2.30;;
17153;SDS011;8692;52.164;7.558;2023-08-31T11:02:28;3.37;;;1.30;;
17153;SDS011;8692;52.164;7.558;2023-08-31T11:05:01;2.87;;;1.33;;
17153;SDS011;8692;52.164;7.558;2023-08-31T11:07:33;4.10;;;1.50;;
17153;SDS011;8692;52.164;7.558;2023-08-31T11:10:07;3.10;;;1.10;;
17153;SDS011;8692;52.164;7.558;2023-08-31T11:12:37;3.47;;;1.43;;
17153;SDS011;8692;52.164;7.558;2023-08-31T11:15:06;3.03;;;1.47;;
17153;SDS011;8692;52.164;7.558;2023-08-31T11:17:36;4.97;;;1.37;;
17153;SDS011;8692;52.164;7.558;2023-08-31T11:20:07;4.38;;;1.30;;
17153;SDS011;8692;52.164;7.558;2023-08-31T11:22:38;3.37;;;1.30;;
17153;SDS011;8692;52.164;7.558;2023-08-31T11:25:07;4.50;;;1.13;;
17153;SDS011;8692;52.164;7.558;2023-08-31T11:27:38;4.13;;;1.63;;
17153;SDS011;8692;52.164;7.558;2023-08-31T11:30:11;2.40;;;1.30;;
17153;SDS011;8692;52.164;7.558;2023-08-31T11:32:43;2.80;;;1.50;;
17153;SDS011;8692;52.164;7.558;2023-08-31T11:35:13;4.60;;;1.40;;
17153;SDS011;8692;52.164;7.558;2023-08-31T11:37:42;2.03;;;1.10;;
17153;SDS011;8692;52.164;7.558;2023-08-31T11:40:11;2.93;;;1.30;;
17153;SDS011;8692;52.164;7.558;2023-08-31T11:42:43;3.57;;;1.10;;
17153;SDS011;8692;52.164;7.558;2023-08-31T11:45:11;3.03;;;1.17;;
17153;SDS011;8692;52.164;7.558;2023-08-31T11:47:41;2.60;;;1.23;;
17153;SDS011;8692;52.164;7.558;2023-08-31T11:50:10;4.73;;;1.67;;
17153;SDS011;8692;52.164;7.558;2023-08-31T11:52:40;2.23;;;1.30;;
17153;SDS011;8692;52.164;7.558;2023-08-31T11:55:12;2.10;;;0.87;;
17153;SDS011;8692;52.164;7.558;2023-08-31T11:57:48;4.10;;;0.93;;
17153;SDS011;8692;52.164;7.558;2023-08-31T12:00:17;2.63;;;1.30;;
17153;SDS011;8692;52.164;7.558;2023-08-31T12:02:53;1.77;;;0.90;;
17153;SDS011;8692;52.164;7.558;2023-08-31T12:05:23;4.57;;;0.87;;
17153;SDS011;8692;52.164;7.558;2023-08-31T12:07:52;2.43;;;0.90;;
17153;SDS011;8692;52.164;7.558;2023-08-31T12:10:23;2.53;;;1.20;;
17153;SDS011;8692;52.164;7.558;2023-08-31T12:12:53;4.57;;;1.30;;
17153;SDS011;8692;52.164;7.558;2023-08-31T12:15:33;3.63;;;1.30;;
17153;SDS011;8692;52.164;7.558;2023-08-31T12:18:06;4.07;;;1.40;;
17153;SDS011;8692;52.164;7.558;2023-08-31T12:20:34;3.90;;;1.23;;
17153;SDS011;8692;52.164;7.558;2023-08-31T12:23:10;4.33;;;1.60;;
17153;SDS011;8692;52.164;7.558;2023-08-31T12:25:45;5.03;;;1.57;;
17153;SDS011;8692;52.164;7.558;2023-08-31T12:28:15;4.70;;;1.70;;
17153;SDS011;8692;52.164;7.558;2023-08-31T12:30:46;6.17;;;1.30;;
17153;SDS011;8692;52.164;7.558;2023-08-31T12:33:15;1.87;;;0.83;;
17153;SDS011;8692;52.164;7.558;2023-08-31T12:35:44;2.20;;;0.60;;
17153;SDS011;8692;52.164;7.558;2023-08-31T12:38:13;2.03;;;0.60;;
17153;SDS011;8692;52.164;7.558;2023-08-31T12:40:41;2.13;;;0.60;;
17153;SDS011;8692;52.164;7.558;2023-08-31T12:43:09;0.77;;;0.63;;
17153;SDS011;8692;52.164;7.558;2023-08-31T12:45:40;0.70;;;0.50;;
17153;SDS011;8692;52.164;7.558;2023-08-31T12:48:08;0.90;;;0.40;;
17153;SDS011;8692;52.164;7.558;2023-08-31T12:50:36;0.40;;;0.30;;
17153;SDS011;8692;52.164;7.558;2023-08-31T12:53:04;0.60;;;0.50;;
17153;SDS011;8692;52.164;7.558;2023-08-31T12:55:32;2.80;;;0.47;;
17153;SDS011;8692;52.164;7.558;2023-08-31T12:58:00;1.10;;;0.80;;
17153;SDS011;8692;52.164;7.558;2023-08-31T13:00:28;1.53;;;0.67;;
17153;SDS011;8692;52.164;7.558;2023-08-31T13:02:58;1.00;;;0.90;;
17153;SDS011;8692;52.164;7.558;2023-08-31T13:05:26;1.70;;;1.20;;
17153;SDS011;8692;52.164;7.558;2023-08-31T13:07:55;1.53;;;1.40;;
17153;SDS011;8692;52.164;7.558;2023-08-31T13:10:23;2.03;;;1.43;;
17153;SDS011;8692;52.164;7.558;2023-08-31T13:12:51;1.67;;;1.50;;
17153;SDS011;8692;52.164;7.558;2023-08-31T13:15:19;3.10;;;1.80;;
17153;SDS011;8692;52.164;7.558;2023-08-31T13:17:47;2.87;;;1.60;;
17153;SDS011;8692;52.164;7.558;2023-08-31T13:20:17;2.70;;;1.80;;
17153;SDS011;8692;52.164;7.558;2023-08-31T13:22:45;1.90;;;1.70;;
17153;SDS011;8692;52.164;7.558;2023-08-31T13:25:13;2.07;;;1.60;;
17153;SDS011;8692;52.164;7.558;2023-08-31T13:27:41;3.00;;;1.67;;
17153;SDS011;8692;52.164;7.558;2023-08-31T13:30:11;3.47;;;2.30;;
17153;SDS011;8692;52.164;7.558;2023-08-31T13:32:39;2.27;;;1.60;;
17153;SDS011;8692;52.164;7.558;2023-08-31T13:35:08;3.47;;;1.77;;
17153;SDS011;8692;52.164;7.558;2023-08-31T13:37:38;3.00;;;2.13;;
17153;SDS011;8692;52.164;7.558;2023-08-31T13:40:06;3.97;;;2.10;;
17153;SDS011;8692;52.164;7.558;2023-08-31T13:42:36;4.07;;;2.23;;
17153;SDS011;8692;52.164;7.558;2023-08-31T13:45:06;3.90;;;2.57;;
17153;SDS011;8692;52.164;7.558;2023-08-31T13:47:34;3.87;;;2.03;;
17153;SDS011;8692;52.164;7.558;2023-08-31T13:50:03;2.77;;;2.00;;
17153;SDS011;8692;52.164;7.558;2023-08-31T13:52:31;4.20;;;2.40;;
17153;SDS011;8692;52.164;7.558;2023-08-31T13:55:01;4.63;;;2.33;;
17153;SDS011;8692;52.164;7.558;2023-08-31T13:57:29;3.73;;;2.43;;
17153;SDS011;8692;52.164;7.558;2023-08-31T13:59:57;4.63;;;1.50;;
17153;SDS011;8692;52.164;7.558;2023-08-31T14:02:26;3.17;;;1.30;;
17153;SDS011;8692;52.164;7.558;2023-08-31T14:04:54;2.80;;;1.30;;
17153;SDS011;8692;52.164;7.558;2023-08-31T14:07:22;4.33;;;0.80;;
17153;SDS011;8692;52.164;7.558;2023-08-31T14:09:50;1.40;;;1.10;;
17153;SDS011;8692;52.164;7.558;2023-08-31T14:12:19;1.97;;;0.97;;
17153;SDS011;8692;52.164;7.558;2023-08-31T14:14:47;1.90;;;1.00;;
17153;SDS011;8692;52.164;7.558;2023-08-31T14:17:15;2.03;;;1.27;;
17153;SDS011;8692;52.164;7.558;2023-08-31T14:19:43;2.63;;;1.00;;
17153;SDS011;8692;52.164;7.558;2023-08-31T14:22:11;6.40;;;1.30;;
17153;SDS011;8692;52.164;7.558;2023-08-31T14:24:39;1.70;;;1.00;;
17153;SDS011;8692;52.164;7.558;2023-08-31T14:27:07;3.03;;;1.47;;
17153;SDS011;8692;52.164;7.558;2023-08-31T14:29:37;5.50;;;1.47;;
17153;SDS011;8692;52.164;7.558;2023-08-31T14:32:05;3.13;;;1.20;;
17153;SDS011;8692;52.164;7.558;2023-08-31T14:34:33;0.93;;;0.80;;
17153;SDS011;8692;52.164;7.558;2023-08-31T14:37:01;1.20;;;0.80;;
17153;SDS011;8692;52.164;7.558;2023-08-31T14:39:29;3.67;;;0.80;;
17153;SDS011;8692;52.164;7.558;2023-08-31T14:42:00;1.80;;;0.83;;
17153;SDS011;8692;52.164;7.558;2023-08-31T14:44:29;2.83;;;1.10;;
17153;SDS011;8692;52.164;7.558;2023-08-31T14:46:58;3.47;;;1.07;;
17153;SDS011;8692;52.164;7.558;2023-08-31T14:49:26;2.37;;;1.00;;
17153;SDS011;8692;52.164;7.558;2023-08-31T14:51:57;3.57;;;1.47;;
17153;SDS011;8692;52.164;7.558;2023-08-31T14:54:31;2.53;;;1.07;;
17153;SDS011;8692;52.164;7.558;2023-08-31T14:56:59;2.47;;;0.80;;
17153;SDS011;8692;52.164;7.558;2023-08-31T14:59:28;2.07;;;0.87;;
17153;SDS011;8692;52.164;7.558;2023-08-31T15:01:56;3.80;;;0.90;;
17153;SDS011;8692;52.164;7.558;2023-08-31T15:04:26;1.97;;;0.83;;
17153;SDS011;8692;52.164;7.558;2023-08-31T15:06:56;4.60;;;0.80;;
17153;SDS011;8692;52.164;7.558;2023-08-31T15:09:24;3.20;;;1.10;;
17153;SDS011;8692;52.164;7.558;2023-08-31T15:11:53;1.40;;;0.80;;
17153;SDS011;8692;52.164;7.558;2023-08-31T15:14:21;1.97;;;0.80;;